A- A+ FrançaisEnglishEspañol中国

最近的 EBBE Beauvechain ABEBTN Goetsenhoven MilLFBT Tarbes-Lourdes-PyrénéesLGIR HeraklionLSMD DubendorfLTFM Istanbul

飞行员的航空天气,使用METAR(气象机场报告)进行的飞行准备和TAF(终端机场预报:针对以下情况的短期天气预报)航空)。 以及其他资源,例如VAC(目视进近图)和NOTAM(通知飞行员)以进行预试飞行.

METAR, TAF, VAC, NOTAM Donaldson Center机场 (美国) / OACI KGYH/ IATA GDC

它位于附近 Greenville (美国) 可提供5天天气预报 Gantt 在 6.4 km, Mauldin 在 6.5 km, Golden Grove 在 6.7 km, Dunean 在 8.4 km, Welcome 在 9.5 km, Judson 在 9.6 km, Woods (historical) 在 9.8 km, Piedmont 在 10 km,

机场的高度为 Donaldson Center机场的

291 m = 955 ft

附近的机场 Donaldson Center机场的

跑道 Donaldson Center机场的

METAR Donaldson Center机场的 - KGYH

KGYH 101147Z 33010KT 10SM CLR 12/M06 A2980

Donaldson Center机场METAR解码 (美国)

KGYH机场发行的METAR日期2020年04月10日至11:47 GMT, 警告:此METAR已过期, 已于 49 天 11 小时 49 分钟.

可见度为16.1 km = 10 sm.

温度为12°C = 54 °F 露点为-6°C = 21 °F 。 这相当于28%的相对湿度。.

QNH是1009 hPa = 29.8 inHg

的风10 kt = 19 km/h, 风向为330°.

天空晴朗

TAF Donaldson Center机场的 - KGYH

没有TAF

Donaldson Center视觉方法图 - KGYH

所提供的视觉方法图(VAC视觉方法图)不保证其及时性。 在将其用于飞行准备或在飞行期间使用之前,飞行员是唯一负责验证其有效性的人员。.

Donaldson Center机场的NOTAM

提供的NOTAM不能保证其时事性。 在将其用于飞行准备或在飞行期间使用之前,飞行员是唯一负责验证其有效性的人员。

没有通知

数据源